createdAt,value
2023-01-08T00:03:13.340Z,100649.06
2023-01-08T00:08:15.688Z,100634.03
2023-01-08T00:13:17.883Z,100623.41
2023-01-08T00:18:20.353Z,100620.78
2023-01-08T00:23:23.367Z,100611.94
2023-01-08T00:28:25.411Z,100606.63
2023-01-08T00:33:27.501Z,100608.34
2023-01-08T00:38:30.228Z,100602.13
2023-01-08T00:43:32.407Z,100596.81
2023-01-08T00:48:39.056Z,100597.66
2023-01-08T00:53:41.352Z,100602.06
2023-01-08T00:58:43.410Z,100584.38
2023-01-08T01:03:45.531Z,100599.38
2023-01-08T01:08:47.638Z,100591.38
2023-01-08T01:13:50.381Z,100584.28
2023-01-08T01:18:53.805Z,100586.88
2023-01-08T01:24:07.091Z,100576.22
2023-01-08T01:29:09.624Z,100575.31
2023-01-08T01:34:11.637Z,100569.97
2023-01-08T01:39:13.678Z,100565.50
2023-01-08T01:44:45.085Z,100555.75
2023-01-08T01:50:18.491Z,100562.75
2023-01-08T01:55:20.551Z,100555.63
2023-01-08T02:06:03.527Z,100537.00
2023-01-08T02:11:14.362Z,100532.53
2023-01-08T02:16:35.773Z,100521.03
2023-01-08T02:21:41.155Z,100510.41
2023-01-08T02:26:47.458Z,100517.34
2023-01-08T02:31:49.925Z,100502.31
2023-01-08T02:36:54.953Z,100506.66
2023-01-08T02:42:12.164Z,100507.50
2023-01-08T02:47:35.762Z,100492.44
2023-01-08T02:52:45.288Z,100489.69
2023-01-08T02:57:48.084Z,100492.22
2023-01-08T03:02:52.585Z,100503.59
2023-01-08T03:07:55.987Z,100504.41
2023-01-08T03:13:06.298Z,100503.47
2023-01-08T03:18:14.100Z,100494.56
2023-01-08T03:23:18.342Z,100494.56
2023-01-08T03:28:25.688Z,100495.34
2023-01-08T03:33:30.635Z,100504.97
2023-01-08T03:38:42.593Z,100492.59
2023-01-08T03:43:45.154Z,100496.06
2023-01-08T03:48:48.942Z,100488.09
2023-01-08T03:53:54.706Z,100490.72
2023-01-08T03:58:56.776Z,100492.41
2023-01-08T04:03:58.745Z,100495.94
2023-01-08T04:09:00.819Z,100493.25
2023-01-08T04:14:03.053Z,100499.38
2023-01-08T04:19:05.140Z,100532.69
2023-01-08T04:24:07.800Z,100524.75
2023-01-08T04:29:09.732Z,100521.22
2023-01-08T04:34:11.848Z,100513.16
2023-01-08T04:39:13.930Z,100506.16
2023-01-08T04:44:16.040Z,100498.25
2023-01-08T04:49:18.173Z,100482.34
2023-01-08T04:54:20.149Z,100478.78
2023-01-08T04:59:22.118Z,100474.34
2023-01-08T05:04:24.251Z,100473.44
2023-01-08T05:09:26.281Z,100473.41
2023-01-08T05:14:28.367Z,100469.88
2023-01-08T05:19:30.299Z,100461.91
2023-01-08T05:24:32.334Z,100472.41
2023-01-08T05:29:34.406Z,100459.19
2023-01-08T05:34:36.345Z,100440.66
2023-01-08T05:39:38.447Z,100432.69
2023-01-08T05:44:40.544Z,100444.97
2023-01-08T05:49:42.668Z,100429.13
2023-01-08T05:54:44.708Z,100413.19
2023-01-08T05:59:46.839Z,100406.16
2023-01-08T06:04:48.926Z,100400.00
2023-01-08T06:09:50.946Z,100406.09
2023-01-08T06:14:53.089Z,100398.19
2023-01-08T06:19:55.127Z,100388.50
2023-01-08T06:24:57.086Z,100392.00
2023-01-08T06:29:59.047Z,100392.75
2023-01-08T06:35:00.995Z,100407.69
2023-01-08T06:40:03.050Z,100399.72
2023-01-08T06:45:05.939Z,100399.75
2023-01-08T06:50:08.523Z,100390.03
2023-01-08T06:55:11.264Z,100398.81
2023-01-08T07:00:13.808Z,100387.38
2023-01-08T07:05:16.095Z,100390.00
2023-01-08T07:10:20.050Z,100390.84
2023-01-08T07:15:22.253Z,100394.28
2023-01-08T07:20:24.390Z,100374.06
2023-01-08T07:25:26.438Z,100383.72
2023-01-08T07:30:30.490Z,100386.34
2023-01-08T07:35:32.839Z,100385.47
2023-01-08T07:40:34.928Z,100400.31
2023-01-08T07:45:36.925Z,100395.06
2023-01-08T07:50:41.474Z,100376.53
2023-01-08T07:55:43.843Z,100392.44
2023-01-08T08:00:48.311Z,100388.00
2023-01-08T08:05:51.073Z,100389.81
2023-01-08T08:10:53.708Z,100379.28
2023-01-08T08:15:56.476Z,100384.59
2023-01-08T08:20:58.658Z,100374.00
2023-01-08T08:26:03.714Z,100372.28
2023-01-08T08:31:06.030Z,100366.16
2023-01-08T08:36:09.216Z,100358.22
2023-01-08T08:41:11.333Z,100361.78
2023-01-08T08:46:13.641Z,100360.88
2023-01-08T08:51:16.298Z,100358.22
2023-01-08T08:56:18.688Z,100349.59
2023-01-08T09:01:20.877Z,100346.91
2023-01-08T09:06:24.335Z,100341.63
2023-01-08T09:11:26.774Z,100342.56
2023-01-08T09:16:28.878Z,100335.13
2023-01-08T09:21:31.245Z,100305.25
2023-01-08T09:26:33.428Z,100315.19
2023-01-08T09:31:35.847Z,100306.91
2023-01-08T09:36:38.982Z,100296.41
2023-01-08T09:41:47.158Z,100284.59
2023-01-08T09:46:50.642Z,100277.84
2023-01-08T09:51:52.809Z,100262.84
2023-01-08T09:56:55.565Z,100259.16
2023-01-08T10:01:58.336Z,100262.38
2023-01-08T10:07:31.600Z,100252.03
2023-01-08T10:12:34.252Z,100248.59
2023-01-08T10:17:42.134Z,100229.38
2023-01-08T10:22:47.534Z,100213.66
2023-01-08T10:27:55.462Z,100197.22
2023-01-08T10:33:29.276Z,100201.53
2023-01-08T10:38:44.813Z,100195.84
2023-01-08T10:44:13.087Z,100204.28
2023-01-08T10:49:37.380Z,100194.75
2023-01-08T10:54:44.570Z,100182.22
2023-01-08T10:59:50.983Z,100179.22
2023-01-08T11:05:08.854Z,100186.53
2023-01-08T11:10:32.036Z,100175.81
2023-01-08T11:15:48.016Z,100182.66
2023-01-08T11:21:12.173Z,100186.66
2023-01-08T11:26:27.413Z,100174.91
2023-01-08T11:31:45.878Z,100191.16
2023-01-08T11:36:55.826Z,100176.09
2023-01-08T11:42:26.099Z,100182.84
2023-01-08T11:47:39.035Z,100177.63
2023-01-08T11:52:55.961Z,100168.38
2023-01-08T11:58:35.077Z,100182.16
2023-01-08T12:04:01.654Z,100166.81
2023-01-08T12:09:19.627Z,100166.16
2023-01-08T12:14:43.614Z,100152.13
2023-01-08T12:20:16.165Z,100141.53
2023-01-08T12:25:38.522Z,100126.81
2023-01-08T12:30:58.183Z,100134.09
2023-01-08T12:36:05.769Z,100136.16
2023-01-08T12:41:18.624Z,100136.41
2023-01-08T12:46:22.402Z,100143.72
2023-01-08T12:51:49.168Z,100131.41
2023-01-08T12:57:17.429Z,100119.16
2023-01-08T13:02:58.571Z,100108.88
2023-01-08T13:08:21.495Z,100113.34
2023-01-08T13:13:35.530Z,100107.25
2023-01-08T13:18:39.589Z,100103.00
2023-01-08T13:23:42.288Z,100094.25
2023-01-08T13:28:50.060Z,100092.56
2023-01-08T13:33:52.933Z,100088.25
2023-01-08T13:39:22.199Z,100066.22
2023-01-08T13:44:43.775Z,100064.53
2023-01-08T13:49:53.520Z,100093.84
2023-01-08T13:54:56.223Z,100088.63
2023-01-08T14:00:00.742Z,100078.13
2023-01-08T14:05:19.632Z,100079.94
2023-01-08T14:10:22.677Z,100077.34
2023-01-08T14:15:30.394Z,100086.25
2023-01-08T14:20:40.275Z,100074.81
2023-01-08T14:25:42.615Z,100075.69
2023-01-08T14:30:53.017Z,100075.75
2023-01-08T14:35:56.819Z,100066.97
2023-01-08T14:41:10.017Z,100065.22
2023-01-08T14:46:19.614Z,100058.22
2023-01-08T14:51:31.675Z,100061.78
2023-01-08T14:56:37.538Z,100044.16
2023-01-08T15:01:39.983Z,100052.13
2023-01-08T15:06:42.529Z,100053.94
2023-01-08T15:11:54.216Z,100033.69
2023-01-08T15:17:00.690Z,100024.91
2023-01-08T15:22:03.741Z,100010.81
2023-01-08T15:27:12.771Z,100020.53
2023-01-08T15:32:15.321Z,100030.25
2023-01-08T15:37:17.564Z,100023.22
2023-01-08T15:42:50.092Z,100019.72
2023-01-08T15:48:00.127Z,100011.81
2023-01-08T15:53:06.163Z,100005.66
2023-01-08T15:58:13.203Z,100000.38
2023-01-08T16:03:26.712Z,100016.25
2023-01-08T16:08:32.729Z,100003.06
2023-01-08T16:13:35.011Z,100008.34
2023-01-08T16:18:38.880Z,100014.53
2023-01-08T16:23:44.903Z,100033.94
2023-01-08T16:28:48.488Z,100008.38
2023-01-08T16:33:53.604Z,100012.84
2023-01-08T16:38:57.708Z,99980.25
2023-01-08T16:44:05.253Z,99961.75
2023-01-08T16:49:16.289Z,99965.28
2023-01-08T16:54:20.399Z,99961.75
2023-01-08T16:59:24.872Z,99954.72
2023-01-08T17:10:18.236Z,99972.34
2023-01-08T17:15:31.385Z,99984.69
2023-01-08T17:20:43.703Z,100000.53
2023-01-08T17:26:07.082Z,99960.03
2023-01-08T17:31:23.176Z,99939.78
2023-01-08T17:36:32.334Z,99938.91
2023-01-08T17:41:56.613Z,99937.16
2023-01-08T17:47:10.201Z,99943.31
2023-01-08T17:52:16.903Z,99927.47
2023-01-08T17:57:24.755Z,99927.47
2023-01-08T18:02:31.869Z,99926.59
2023-01-08T18:07:38.844Z,99931.66
2023-01-08T18:12:42.084Z,99930.78
2023-01-08T18:17:47.019Z,99928.66
2023-01-08T18:23:03.332Z,99930.50
2023-01-08T18:28:09.618Z,99930.00
2023-01-08T18:33:14.525Z,99935.66
2023-01-08T18:38:22.986Z,99927.84
2023-01-08T18:43:29.937Z,99921.47
2023-01-08T18:48:34.985Z,99923.28
2023-01-08T18:53:37.688Z,99923.09
2023-01-08T18:58:41.434Z,99915.41
2023-01-08T19:03:45.265Z,99907.72
2023-01-08T19:09:03.490Z,99903.66
2023-01-08T19:14:08.485Z,99904.06
2023-01-08T19:24:32.907Z,99893.44
2023-01-08T19:29:37.953Z,99891.31
2023-01-08T19:34:41.069Z,99875.88
2023-01-08T19:39:47.992Z,99874.22
2023-01-08T19:44:55.120Z,99861.25
2023-01-08T19:50:01.511Z,99855.59
2023-01-08T19:55:10.401Z,99855.31
2023-01-08T20:00:13.746Z,99837.22
2023-01-08T20:05:17.279Z,99834.09
2023-01-08T20:10:22.093Z,99846.09
2023-01-08T20:15:27.929Z,99831.81
2023-01-08T20:20:31.391Z,99826.16
2023-01-08T20:25:35.807Z,99843.34
2023-01-08T20:30:51.445Z,99831.97
2023-01-08T20:35:57.417Z,99832.75
2023-01-08T20:41:04.488Z,99827.84
2023-01-08T20:46:11.924Z,99815.03
2023-01-08T20:51:16.903Z,99809.16
2023-01-08T20:56:25.922Z,99798.81
2023-01-08T21:01:35.875Z,99791.06
2023-01-08T21:06:41.586Z,99784.97
2023-01-08T21:11:46.859Z,99779.75
2023-01-08T21:16:52.240Z,99771.72
2023-01-08T21:21:56.324Z,99768.81
2023-01-08T21:26:59.267Z,99767.91
2023-01-08T21:32:02.393Z,99764.16
2023-01-08T21:37:09.076Z,99767.50
2023-01-08T21:42:30.675Z,99770.38
2023-01-08T21:47:35.415Z,99765.63
2023-01-08T21:52:55.750Z,99750.94
2023-01-08T21:57:57.824Z,99755.88
2023-01-08T22:03:00.028Z,99728.84
2023-01-08T22:08:02.201Z,99713.16
2023-01-08T22:13:04.170Z,99720.63
2023-01-08T22:18:06.311Z,99710.34
2023-01-08T22:23:08.440Z,99698.28
2023-01-08T22:28:13.695Z,99685.25
2023-01-08T22:33:16.123Z,99682.00
2023-01-08T22:38:18.450Z,99669.81
2023-01-08T22:43:21.339Z,99661.25
2023-01-08T22:48:24.799Z,99651.00
2023-01-08T22:53:27.642Z,99634.44
2023-01-08T22:58:29.851Z,99619.63
2023-01-08T23:03:34.659Z,99618.88
2023-01-08T23:08:39.424Z,99627.09
2023-01-08T23:13:44.921Z,99614.03
2023-01-08T23:18:48.386Z,99612.53
2023-01-08T23:23:51.901Z,99625.97
2023-01-08T23:28:55.129Z,99624.34
2023-01-08T23:33:57.897Z,99636.84
2023-01-08T23:39:00.281Z,99619.34
2023-01-08T23:44:07.608Z,99621.25
2023-01-08T23:49:10.440Z,99608.31
2023-01-08T23:54:13.035Z,99618.09
2023-01-08T23:59:16.045Z,99620.84
